createdAt,value
2017-06-08T00:02:05.673Z,1005.9
2017-06-08T00:12:15.788Z,1005.8
2017-06-08T00:22:25.908Z,1005.7
2017-06-08T00:32:36.025Z,1005.7
2017-06-08T00:42:46.168Z,1005.9
2017-06-08T00:52:56.294Z,1005.7
2017-06-08T01:03:06.435Z,1005.8
2017-06-08T01:13:16.486Z,1005.9
2017-06-08T01:23:26.575Z,1005.8
2017-06-08T01:33:36.648Z,1005.7
2017-06-08T01:43:46.762Z,1005.8
2017-06-08T01:53:56.885Z,1005.9
2017-06-08T02:04:06.989Z,1005.9
2017-06-08T02:14:17.105Z,1006
2017-06-08T02:24:27.161Z,1006
2017-06-08T02:34:37.269Z,1006
2017-06-08T02:44:47.345Z,1006
2017-06-08T02:54:57.439Z,1006.1
2017-06-08T03:05:07.444Z,1006.1
2017-06-08T03:15:17.478Z,1006
2017-06-08T03:25:27.493Z,1006
2017-06-08T03:35:37.515Z,1006
2017-06-08T03:45:47.487Z,1006
2017-06-08T03:55:57.456Z,1006
2017-06-08T04:06:07.447Z,1006.2
2017-06-08T04:16:17.445Z,1005.9
2017-06-08T04:26:27.468Z,1006.2
2017-06-08T04:36:37.541Z,1006.1
2017-06-08T04:46:47.617Z,1006.1
2017-06-08T04:56:57.739Z,1006.3
2017-06-08T05:07:07.847Z,1006.2
2017-06-08T05:17:17.984Z,1006.4
2017-06-08T05:27:28.121Z,1006.5
2017-06-08T05:37:38.172Z,1006.3
2017-06-08T05:47:48.185Z,1006.2
2017-06-08T05:57:58.165Z,1006.3
2017-06-08T06:08:07.977Z,1006.2
2017-06-08T06:18:17.543Z,1006.1
2017-06-08T06:28:26.950Z,1006.1
2017-06-08T06:38:36.155Z,1006.1
2017-06-08T06:48:45.283Z,1006.3
2017-06-08T06:58:54.426Z,1006.1
2017-06-08T07:09:03.595Z,1006.1
2017-06-08T07:19:12.787Z,1006
2017-06-08T07:29:22.000Z,1006.2
2017-06-08T07:39:31.114Z,1006.3
2017-06-08T07:49:40.174Z,1006.2
2017-06-08T07:59:49.276Z,1006.3
2017-06-08T08:09:58.340Z,1006.3
2017-06-08T08:20:07.271Z,1006
2017-06-08T08:30:16.046Z,1005.9
2017-06-08T08:40:24.576Z,1006
2017-06-08T08:50:32.922Z,1006
2017-06-08T09:00:41.081Z,1006
2017-06-08T09:10:49.132Z,1005.9
2017-06-08T09:20:56.994Z,1006
2017-06-08T09:31:04.789Z,1005.8
2017-06-08T09:41:12.459Z,1005.7
2017-06-08T09:51:20.158Z,1005.6
2017-06-08T10:01:27.859Z,1005.6
2017-06-08T10:11:35.405Z,1005.6
2017-06-08T10:21:42.917Z,1005.6
2017-06-08T10:31:50.572Z,1005.5
2017-06-08T10:41:58.154Z,1005.8
2017-06-08T10:52:05.681Z,1005.8
2017-06-08T11:02:13.255Z,1005.6
2017-06-08T11:12:21.009Z,1005.7
2017-06-08T11:22:28.727Z,1005.5
2017-06-08T11:32:36.553Z,1005.3
2017-06-08T11:42:44.470Z,1005.3
2017-06-08T11:52:52.296Z,1005.2
2017-06-08T12:03:00.113Z,1004.9
2017-06-08T12:13:07.905Z,1004.8
2017-06-08T12:23:15.647Z,1004.8
2017-06-08T12:33:23.287Z,1004.7
2017-06-08T12:43:30.778Z,1004.7
2017-06-08T12:53:38.181Z,1004.7
2017-06-08T13:03:45.398Z,1004.5
2017-06-08T13:13:52.638Z,1004.6
2017-06-08T13:23:59.897Z,1004.5
2017-06-08T13:34:07.120Z,1004.4
2017-06-08T13:44:14.433Z,1004.2
2017-06-08T13:54:21.715Z,1004.3
2017-06-08T14:04:29.015Z,1004.2
2017-06-08T14:14:36.257Z,1004.2
2017-06-08T14:24:43.520Z,1003.8
2017-06-08T14:34:50.601Z,1003.9
2017-06-08T14:44:57.717Z,1003.8
2017-06-08T14:55:04.917Z,1003.7
2017-06-08T15:05:12.319Z,1003.7
2017-06-08T15:15:19.721Z,1003.6
2017-06-08T15:25:27.120Z,1003.3
2017-06-08T15:35:34.433Z,1003.2
2017-06-08T15:45:41.765Z,1003.2
2017-06-08T15:55:49.279Z,1002.9
2017-06-08T16:05:56.764Z,1002.8
2017-06-08T16:16:04.287Z,1002.6
2017-06-08T16:26:11.852Z,1002.7
2017-06-08T16:36:19.524Z,1002.7
2017-06-08T16:46:27.339Z,1002.6
2017-06-08T16:56:35.000Z,1002.6
2017-06-08T17:06:42.276Z,1002.6
2017-06-08T17:16:49.530Z,1002.6
2017-06-08T17:26:56.817Z,1002.4
2017-06-08T17:37:04.368Z,1002.4
2017-06-08T17:47:11.898Z,1002.3
2017-06-08T17:57:19.628Z,1002.5
2017-06-08T18:07:27.577Z,1002.5
2017-06-08T18:17:35.499Z,1002.5
2017-06-08T18:27:43.746Z,1002.5
2017-06-08T18:37:51.979Z,1002.5
2017-06-08T18:48:00.415Z,1002.6
2017-06-08T18:58:08.915Z,1002.7
2017-06-08T19:08:17.469Z,1002.7
2017-06-08T19:18:25.924Z,1002.8
2017-06-08T19:28:34.393Z,1002.8
2017-06-08T19:38:42.973Z,1002.9
2017-06-08T19:48:51.641Z,1003
2017-06-08T19:59:00.408Z,1003
2017-06-08T20:09:09.214Z,1003
2017-06-08T20:19:17.988Z,1003
2017-06-08T20:29:26.802Z,1003.1
2017-06-08T20:39:35.606Z,1003.1
2017-06-08T20:49:44.465Z,1003.1
2017-06-08T20:59:53.241Z,1003.1
2017-06-08T21:10:02.098Z,1003.2
2017-06-08T21:20:10.974Z,1003.2
2017-06-08T21:30:19.827Z,1003.2
2017-06-08T21:40:28.728Z,1003.1
2017-06-08T21:50:37.657Z,1003.1
2017-06-08T22:00:46.520Z,1003
2017-06-08T22:10:55.421Z,1002.9
2017-06-08T22:21:04.368Z,1002.7
2017-06-08T22:31:13.359Z,1002.7
2017-06-08T22:41:22.329Z,1002.5
2017-06-08T22:51:31.364Z,1002.4
2017-06-08T23:01:40.379Z,1002.2
2017-06-08T23:11:49.435Z,1002.1
2017-06-08T23:21:58.555Z,1002
2017-06-08T23:32:07.704Z,1001.9
2017-06-08T23:42:16.897Z,1001.7
2017-06-08T23:52:26.091Z,1001.6
